Airport View

Enter AWOS ICAO identifier for current METAR.

ex. KFNL

KBFI 200253Z 10006KT 10SM CLR 21/M08 A2993 RMK AO2 SLP135 T02111078 55007 $

20 Mar 2019 03:14

Phone: 206-763-6904

Other Area AWOS: KRNT - KSEA - KPWT - KTIW

TAF KBFI 192338Z 2000/2024 11012KT P6SM SKC FM200500 02004KT P6SM SKC FM201500 35004KT P6SM SKC